UACC/TSE METAR and TAF weather

Enter ICAO airport designator
Station Type Date Time Source
UACC METAR 2021/02/27 03:00 UTC NOAA

UACC 270300Z 19002MPS 9999 FEW014 M29/M32 Q1029 R22/8///60 NOSIG RMK QFE740/0987


Station Type Date Time Source
UACC Decoded METAR 2021/02/27 03:00 UTC NOAA

Astana, Kazakhstan (UACC) 51-12N 071-27E
Feb 26, 2021 - 10:00 PM EST / 2021.02.27 0300 UTC
Wind: from the S (190 degrees) at 4 MPH (4 KT):0
Visibility: greater than 7 mile(s):0
Sky conditions: mostly clear
Temperature: -20 F (-29 C)
Dew Point: -25 F (-32 C)
Relative Humidity: 75%
Pressure (altimeter): 30.39 in. Hg (1029 hPa)
ob: UACC 270300Z 19002MPS 9999 FEW014 M29/M32 Q1029 R22/8///60 NOSIG RMK QFE740/0987
cycle: 3

Station Type Date Time Source
UACC TAF 2021/02/26 18:21 UTC NOAA

TAF UACC 261700Z 2618/2718 18004MPS 9999 NSC TXM16/2709Z TNM32/2702Z
TEMPO 2618/2704 3100 IC BR SCT011
TEMPO 2704/2714 16007MPS
FM271400 18008MPS 9999 BKN011 BKN030

Example: see airport list